createdAt,value
2017-03-04T00:00:53.154Z,0
2017-03-04T00:01:53.154Z,0
2017-03-04T00:02:53.174Z,0
2017-03-04T00:03:53.186Z,0
2017-03-04T00:04:53.236Z,0
2017-03-04T00:05:53.250Z,0
2017-03-04T00:06:53.332Z,0
2017-03-04T00:07:53.306Z,0
2017-03-04T00:08:53.361Z,0
2017-03-04T00:09:53.369Z,0
2017-03-04T00:10:53.368Z,0
2017-03-04T00:11:53.431Z,0
2017-03-04T00:12:53.445Z,0
2017-03-04T00:13:53.488Z,0
2017-03-04T00:14:53.507Z,0
2017-03-04T00:15:53.542Z,0
2017-03-04T00:16:53.539Z,0
2017-03-04T00:17:53.609Z,0
2017-03-04T00:18:53.603Z,0
2017-03-04T00:19:53.649Z,0
2017-03-04T00:20:53.669Z,0
2017-03-04T00:21:53.699Z,0
2017-03-04T00:22:53.738Z,0
2017-03-04T00:23:53.772Z,0
2017-03-04T00:24:53.781Z,0
2017-03-04T00:25:53.799Z,0
2017-03-04T00:26:53.844Z,0
2017-03-04T00:27:53.844Z,0
2017-03-04T00:28:53.906Z,0
2017-03-04T00:29:53.932Z,0
2017-03-04T00:30:54.001Z,0
2017-03-04T00:31:53.962Z,0
2017-03-04T00:32:53.972Z,0
2017-03-04T00:33:54.016Z,0
2017-03-04T00:34:54.028Z,0
2017-03-04T00:35:54.076Z,0
2017-03-04T00:36:54.088Z,0
2017-03-04T00:37:54.104Z,0
2017-03-04T00:38:54.107Z,0
2017-03-04T00:39:54.204Z,0
2017-03-04T00:40:54.201Z,0
2017-03-04T00:41:54.284Z,0
2017-03-04T00:42:54.288Z,0
2017-03-04T00:43:54.309Z,0
2017-03-04T00:44:54.308Z,0
2017-03-04T00:45:54.350Z,0
2017-03-04T00:46:54.353Z,0
2017-03-04T00:47:54.408Z,0
2017-03-04T00:48:54.418Z,0
2017-03-04T00:49:54.433Z,0
2017-03-04T00:50:54.494Z,0
2017-03-04T00:51:54.516Z,0
2017-03-04T00:52:54.543Z,0
2017-03-04T00:53:54.545Z,0
2017-03-04T00:54:54.579Z,0
2017-03-04T00:55:54.608Z,0
2017-03-04T00:56:54.625Z,0
2017-03-04T00:57:54.670Z,0
2017-03-04T00:58:54.697Z,0
2017-03-04T00:59:54.749Z,0
2017-03-04T01:00:54.735Z,0
2017-03-04T01:01:54.814Z,0
2017-03-04T01:02:54.811Z,0
2017-03-04T01:03:54.820Z,0
2017-03-04T01:04:54.842Z,0
2017-03-04T01:05:54.907Z,0
2017-03-04T01:06:54.915Z,0
2017-03-04T01:07:54.935Z,0
2017-03-04T01:08:54.970Z,0
2017-03-04T01:09:55.036Z,0
2017-03-04T01:10:54.994Z,0
2017-03-04T01:11:55.071Z,0
2017-03-04T01:12:55.096Z,0
2017-03-04T01:13:55.116Z,0
2017-03-04T01:14:55.115Z,0
2017-03-04T01:15:55.162Z,0
2017-03-04T01:16:55.175Z,0
2017-03-04T01:17:55.191Z,0
2017-03-04T01:18:55.246Z,0
2017-03-04T01:19:55.239Z,0
2017-03-04T01:20:55.313Z,0
2017-03-04T01:21:55.330Z,0
2017-03-04T01:22:55.346Z,0
2017-03-04T01:23:55.411Z,0
2017-03-04T01:24:55.382Z,0
2017-03-04T01:25:55.439Z,0
2017-03-04T01:26:55.446Z,0
2017-03-04T01:27:55.505Z,0
2017-03-04T01:28:55.508Z,0
2017-03-04T01:29:55.557Z,0
2017-03-04T01:30:55.570Z,0
2017-03-04T01:31:55.597Z,0
2017-03-04T01:32:55.622Z,0
2017-03-04T01:33:55.645Z,0
2017-03-04T01:34:55.672Z,0
2017-03-04T01:35:55.738Z,0
2017-03-04T01:36:55.728Z,0
2017-03-04T01:37:55.759Z,0
2017-03-04T01:38:55.809Z,0
2017-03-04T01:39:55.810Z,0
2017-03-04T01:40:55.847Z,0
2017-03-04T01:41:55.829Z,0
2017-03-04T01:42:55.828Z,0
2017-03-04T01:43:55.916Z,0
2017-03-04T01:44:56.011Z,0
2017-03-04T01:45:55.962Z,0
2017-03-04T01:46:55.992Z,0
2017-03-04T01:47:56.059Z,0
2017-03-04T01:48:56.072Z,0
2017-03-04T01:49:56.120Z,0
2017-03-04T01:50:56.084Z,0
2017-03-04T01:51:56.113Z,0
2017-03-04T01:52:56.146Z,0
2017-03-04T01:53:56.171Z,0
2017-03-04T01:54:56.203Z,0
2017-03-04T01:55:56.223Z,0
2017-03-04T01:56:56.243Z,0
2017-03-04T01:57:56.306Z,0
2017-03-04T01:58:56.307Z,0
2017-03-04T01:59:56.348Z,0
2017-03-04T02:00:56.445Z,0
2017-03-04T02:01:56.430Z,0
2017-03-04T02:02:56.398Z,0
2017-03-04T02:03:56.488Z,0
2017-03-04T02:04:56.472Z,0
2017-03-04T02:05:56.514Z,0
2017-03-04T02:06:56.540Z,0
2017-03-04T02:07:56.562Z,0
2017-03-04T02:08:56.576Z,0
2017-03-04T02:09:56.655Z,0
2017-03-04T02:10:56.629Z,0
2017-03-04T02:11:56.651Z,0
2017-03-04T02:12:56.672Z,0
2017-03-04T02:13:56.729Z,0
2017-03-04T02:14:56.744Z,0
2017-03-04T02:15:56.754Z,0
2017-03-04T02:16:56.840Z,0
2017-03-04T02:17:56.819Z,0
2017-03-04T02:18:56.856Z,0
2017-03-04T02:19:56.858Z,0
2017-03-04T02:20:56.910Z,0
2017-03-04T02:21:56.960Z,0
2017-03-04T02:22:56.971Z,0
2017-03-04T02:23:57.002Z,0
2017-03-04T02:24:56.990Z,0
2017-03-04T02:25:57.052Z,0
2017-03-04T02:26:57.060Z,0
2017-03-04T02:27:57.132Z,0
2017-03-04T02:28:57.122Z,0
2017-03-04T02:29:57.157Z,0
2017-03-04T02:30:57.157Z,0
2017-03-04T02:31:57.202Z,0
2017-03-04T02:32:57.239Z,0
2017-03-04T02:33:57.351Z,0
2017-03-04T02:34:57.307Z,0
2017-03-04T02:35:57.329Z,0
2017-03-04T02:36:57.327Z,0
2017-03-04T02:37:57.412Z,0
2017-03-04T02:38:57.386Z,0
2017-03-04T02:39:57.445Z,0
2017-03-04T02:40:57.457Z,0
2017-03-04T02:41:57.444Z,0
2017-03-04T02:42:57.494Z,0
2017-03-04T02:43:57.510Z,0
2017-03-04T02:44:57.537Z,0
2017-03-04T02:45:57.649Z,0
2017-03-04T02:46:57.603Z,0
2017-03-04T02:47:57.629Z,0
2017-03-04T02:48:57.629Z,0
2017-03-04T02:49:57.700Z,0
2017-03-04T02:50:57.728Z,0
2017-03-04T02:51:57.739Z,0
2017-03-04T02:52:57.756Z,0
2017-03-04T02:53:57.765Z,0
2017-03-04T02:54:57.798Z,0
2017-03-04T02:55:57.851Z,0
2017-03-04T02:56:57.888Z,0
2017-03-04T02:57:57.925Z,0
2017-03-04T02:58:57.905Z,0
2017-03-04T02:59:57.932Z,0
2017-03-04T03:00:57.950Z,0
2017-03-04T03:01:58.019Z,0
2017-03-04T03:02:58.032Z,0
2017-03-04T03:03:58.064Z,0
2017-03-04T03:04:58.036Z,0
2017-03-04T03:05:58.081Z,0
2017-03-04T03:06:58.105Z,0
2017-03-04T03:07:58.140Z,0
2017-03-04T03:08:58.178Z,0
2017-03-04T03:09:58.209Z,0
2017-03-04T03:10:58.250Z,0
2017-03-04T03:11:58.261Z,0
2017-03-04T03:12:58.316Z,0
2017-03-04T03:13:58.339Z,0
2017-03-04T03:14:58.348Z,0
2017-03-04T03:15:58.386Z,0
2017-03-04T03:16:58.386Z,0
2017-03-04T03:17:58.432Z,0
2017-03-04T03:18:58.469Z,0
2017-03-04T03:19:58.484Z,0
2017-03-04T03:20:58.521Z,0
2017-03-04T03:21:58.483Z,0
2017-03-04T03:22:58.563Z,0
2017-03-04T03:23:58.591Z,0
2017-03-04T03:24:58.590Z,0
2017-03-04T03:25:58.624Z,0
2017-03-04T03:26:58.658Z,0
2017-03-04T03:27:58.696Z,0
2017-03-04T03:28:58.727Z,0
2017-03-04T03:29:58.733Z,0
2017-03-04T03:30:58.770Z,0
2017-03-04T03:31:58.787Z,0
2017-03-04T03:32:58.839Z,0
2017-03-04T03:33:58.880Z,0
2017-03-04T03:34:58.903Z,0
2017-03-04T03:35:58.893Z,0
2017-03-04T03:36:58.926Z,0
2017-03-04T03:37:59.032Z,0
2017-03-04T03:38:58.977Z,0
2017-03-04T03:39:58.992Z,0
2017-03-04T03:40:59.011Z,0
2017-03-04T03:41:59.061Z,0
2017-03-04T03:42:59.121Z,0
2017-03-04T03:43:59.320Z,0
2017-03-04T03:44:59.167Z,0
2017-03-04T03:45:59.157Z,0
2017-03-04T03:46:59.177Z,0
2017-03-04T03:47:59.222Z,0
2017-03-04T03:48:59.301Z,0
2017-03-04T03:49:59.281Z,0
2017-03-04T03:50:59.312Z,0
2017-03-04T03:51:59.326Z,0
2017-03-04T03:52:59.359Z,0
2017-03-04T03:53:59.364Z,0
2017-03-04T03:55:00.601Z,0
2017-03-04T03:55:59.432Z,0
2017-03-04T03:56:59.458Z,0
2017-03-04T03:57:59.493Z,0
2017-03-04T03:58:59.502Z,0
2017-03-04T03:59:59.700Z,0
2017-03-04T04:00:59.569Z,0
2017-03-04T04:01:59.591Z,0
2017-03-04T04:02:59.622Z,0
2017-03-04T04:03:59.642Z,0
2017-03-04T04:05:00.741Z,0
2017-03-04T04:05:59.664Z,0
2017-03-04T04:06:59.719Z,0
2017-03-04T04:07:59.746Z,0
2017-03-04T04:08:59.783Z,0
2017-03-04T04:09:59.832Z,0
2017-03-04T04:10:59.822Z,0
2017-03-04T04:11:59.878Z,0
2017-03-04T04:12:59.893Z,0
2017-03-04T04:13:59.960Z,0
2017-03-04T04:14:59.942Z,0
2017-03-04T04:15:59.958Z,0
2017-03-04T04:17:00.000Z,0
2017-03-04T04:18:00.035Z,0
2017-03-04T04:19:00.059Z,0
2017-03-04T04:20:00.083Z,0
2017-03-04T04:21:00.093Z,0
2017-03-04T04:22:00.123Z,0
2017-03-04T04:23:00.159Z,0
2017-03-04T04:24:00.153Z,0
2017-03-04T04:25:00.209Z,0
2017-03-04T04:26:00.211Z,0
2017-03-04T04:27:00.252Z,0
2017-03-04T04:28:00.308Z,0
2017-03-04T04:29:00.308Z,0
2017-03-04T04:30:00.291Z,0
2017-03-04T04:31:00.438Z,0
2017-03-04T04:32:00.395Z,0
2017-03-04T04:33:00.393Z,0
2017-03-04T04:34:00.430Z,0
2017-03-04T04:35:00.491Z,0
2017-03-04T04:36:00.490Z,0
2017-03-04T04:37:00.530Z,0
2017-03-04T04:38:00.564Z,0
2017-03-04T04:39:00.576Z,0
2017-03-04T04:40:00.589Z,0
2017-03-04T04:41:10.089Z,0
2017-03-04T04:42:00.993Z,0
2017-03-04T04:43:01.025Z,0
2017-03-04T04:44:01.031Z,0
2017-03-04T04:45:01.072Z,0
2017-03-04T04:46:01.093Z,0
2017-03-04T04:47:01.125Z,0
2017-03-04T04:48:01.170Z,0
2017-03-04T04:49:01.190Z,0
2017-03-04T04:50:01.204Z,0
2017-03-04T04:51:01.234Z,0
2017-03-04T04:52:01.235Z,0
2017-03-04T04:53:01.299Z,0
2017-03-04T04:54:01.300Z,0
2017-03-04T04:55:01.413Z,0
2017-03-04T04:56:01.363Z,0
2017-03-04T04:57:01.409Z,0
2017-03-04T04:58:01.409Z,0
2017-03-04T04:59:01.441Z,0
2017-03-04T05:01:01.503Z,0
2017-03-04T05:02:01.571Z,0
2017-03-04T05:03:01.553Z,0
2017-03-04T05:04:01.602Z,0
2017-03-04T05:05:01.611Z,0
2017-03-04T05:06:01.642Z,0
2017-03-04T05:07:01.660Z,0
2017-03-04T05:08:01.674Z,0
2017-03-04T05:09:01.740Z,0
2017-03-04T05:10:01.750Z,0
2017-03-04T05:11:01.790Z,0
2017-03-04T05:12:01.798Z,0
2017-03-04T05:13:01.796Z,0
2017-03-04T05:14:01.855Z,0
2017-03-04T05:15:01.840Z,0
2017-03-04T05:16:01.900Z,0
2017-03-04T05:17:01.923Z,0
2017-03-04T05:18:01.931Z,0
2017-03-04T05:19:01.975Z,0
2017-03-04T05:20:01.996Z,0
2017-03-04T05:21:02.003Z,0
2017-03-04T05:22:02.077Z,0
2017-03-04T05:23:02.058Z,0
2017-03-04T05:24:02.109Z,0
2017-03-04T05:25:02.137Z,0
2017-03-04T05:26:02.185Z,0
2017-03-04T05:27:02.170Z,0
2017-03-04T05:28:02.290Z,0
2017-03-04T05:29:02.232Z,0
2017-03-04T05:30:02.276Z,0
2017-03-04T05:31:02.300Z,0
2017-03-04T05:32:02.371Z,0
2017-03-04T05:33:02.345Z,0
2017-03-04T05:34:02.394Z,0
2017-03-04T05:35:02.392Z,0
2017-03-04T05:36:02.415Z,0
2017-03-04T05:37:02.474Z,0
2017-03-04T05:38:02.458Z,0
2017-03-04T05:39:02.505Z,0
2017-03-04T05:40:02.530Z,0
2017-03-04T05:41:02.559Z,0
2017-03-04T05:42:02.571Z,0
2017-03-04T05:43:02.609Z,0
2017-03-04T05:44:02.637Z,0
2017-03-04T05:45:02.671Z,0
2017-03-04T05:46:02.685Z,0
2017-03-04T05:47:02.710Z,0
2017-03-04T05:48:02.730Z,5
2017-03-04T05:49:02.781Z,5
2017-03-04T05:50:02.786Z,5
2017-03-04T05:51:02.808Z,5
2017-03-04T05:52:02.810Z,5
2017-03-04T05:53:02.870Z,5
2017-03-04T05:54:02.905Z,5
2017-03-04T05:55:02.906Z,5
2017-03-04T05:56:02.938Z,10
2017-03-04T05:57:02.908Z,10
2017-03-04T05:58:02.995Z,10
2017-03-04T05:59:03.020Z,10
2017-03-04T06:00:03.071Z,10
2017-03-04T06:01:03.053Z,15
2017-03-04T06:02:03.111Z,15
2017-03-04T06:03:03.143Z,15
2017-03-04T06:04:03.175Z,20
2017-03-04T06:05:03.162Z,20
2017-03-04T06:06:03.248Z,20
2017-03-04T06:07:03.265Z,25
2017-03-04T06:08:03.351Z,25
2017-03-04T06:09:03.296Z,25
2017-03-04T06:10:03.335Z,30
2017-03-04T06:11:03.337Z,30
2017-03-04T06:12:03.405Z,30
2017-03-04T06:13:03.423Z,35
2017-03-04T06:14:03.399Z,35
2017-03-04T06:15:03.441Z,40
2017-03-04T06:16:03.498Z,40
2017-03-04T06:17:03.534Z,45
2017-03-04T06:18:03.525Z,45
2017-03-04T06:19:03.548Z,50
2017-03-04T06:20:03.602Z,50
2017-03-04T06:21:03.607Z,55
2017-03-04T06:22:03.602Z,55
2017-03-04T06:23:03.684Z,60
2017-03-04T06:24:03.691Z,60
2017-03-04T06:25:03.720Z,65
2017-03-04T06:26:03.701Z,65
2017-03-04T06:27:03.746Z,65
2017-03-04T06:28:03.822Z,65
2017-03-04T06:29:03.822Z,70
2017-03-04T06:30:03.870Z,75
2017-03-04T06:31:03.870Z,75
2017-03-04T06:32:03.901Z,80
2017-03-04T06:33:03.946Z,80
2017-03-04T06:34:03.924Z,85
2017-03-04T06:35:03.972Z,90
2017-03-04T06:36:03.989Z,90
2017-03-04T06:37:04.054Z,95
2017-03-04T06:38:04.099Z,95
2017-03-04T06:39:04.096Z,100
2017-03-04T06:40:04.197Z,105
2017-03-04T06:41:04.143Z,110
2017-03-04T06:42:04.158Z,115
2017-03-04T06:43:04.183Z,120
2017-03-04T06:44:04.218Z,120
2017-03-04T06:45:04.318Z,125
2017-03-04T06:46:04.273Z,125
2017-03-04T06:47:04.322Z,130
2017-03-04T06:48:04.338Z,130
2017-03-04T06:49:04.326Z,135
2017-03-04T06:50:04.396Z,140
2017-03-04T06:51:04.978Z,140
2017-03-04T06:52:05.002Z,145
2017-03-04T06:53:05.082Z,150
2017-03-04T06:54:05.069Z,155
2017-03-04T06:55:05.165Z,155
2017-03-04T06:56:05.137Z,160
2017-03-04T06:57:05.178Z,165
2017-03-04T06:58:05.205Z,170
2017-03-04T06:59:05.258Z,175
2017-03-04T07:00:05.241Z,175
2017-03-04T07:01:05.282Z,180
2017-03-04T07:02:05.514Z,185
2017-03-04T07:03:05.342Z,190
2017-03-04T07:04:05.378Z,190
2017-03-04T07:05:05.416Z,190
2017-03-04T07:06:05.409Z,195
2017-03-04T07:07:05.411Z,195
2017-03-04T07:08:05.451Z,200
2017-03-04T07:09:05.485Z,205
2017-03-04T07:10:05.677Z,205
2017-03-04T07:11:05.562Z,205
2017-03-04T07:12:05.586Z,210
2017-03-04T07:13:05.621Z,215
2017-03-04T07:14:05.619Z,220
2017-03-04T07:15:05.659Z,230
2017-03-04T07:16:05.684Z,235
2017-03-04T07:17:05.717Z,240
2017-03-04T07:18:05.742Z,245
2017-03-04T07:19:05.845Z,250
2017-03-04T07:20:05.827Z,255
2017-03-04T07:21:05.816Z,255
2017-03-04T07:22:05.839Z,260
2017-03-04T07:23:05.865Z,260
2017-03-04T07:24:05.943Z,265
2017-03-04T07:25:05.995Z,270
2017-03-04T07:26:06.084Z,270
2017-03-04T07:27:06.024Z,270
2017-03-04T07:28:06.061Z,275
2017-03-04T07:29:06.068Z,275
2017-03-04T07:30:06.118Z,275
2017-03-04T07:31:06.146Z,275
2017-03-04T07:32:06.135Z,275
2017-03-04T07:33:06.157Z,280
2017-03-04T07:34:06.196Z,285
2017-03-04T07:35:06.191Z,295
2017-03-04T07:36:06.264Z,295
2017-03-04T07:37:06.337Z,300
2017-03-04T07:38:06.284Z,305
2017-03-04T07:39:06.318Z,315
2017-03-04T07:40:06.341Z,320
2017-03-04T07:41:06.393Z,325
2017-03-04T07:42:06.405Z,330
2017-03-04T07:43:06.443Z,335
2017-03-04T07:44:06.462Z,350
2017-03-04T07:45:06.527Z,365
2017-03-04T07:46:06.546Z,370
2017-03-04T07:47:06.556Z,390
2017-03-04T07:48:06.587Z,390
2017-03-04T07:49:06.623Z,390
2017-03-04T07:50:06.643Z,390
2017-03-04T07:51:06.692Z,390
2017-03-04T07:52:06.719Z,400
2017-03-04T07:53:06.718Z,445
2017-03-04T07:54:06.746Z,455
2017-03-04T07:55:06.888Z,470
2017-03-04T07:56:06.909Z,475
2017-03-04T07:57:06.871Z,465
2017-03-04T07:58:06.879Z,455
2017-03-04T07:59:06.898Z,485
2017-03-04T08:00:07.405Z,515
2017-03-04T08:01:06.971Z,515
2017-03-04T08:02:07.206Z,545
2017-03-04T08:03:07.016Z,560
2017-03-04T08:04:07.021Z,550
2017-03-04T08:05:07.278Z,525
2017-03-04T08:06:07.122Z,555
2017-03-04T08:07:07.251Z,550
2017-03-04T08:08:07.213Z,545
2017-03-04T08:09:07.203Z,545
2017-03-04T08:10:07.256Z,535
2017-03-04T08:11:07.286Z,540
2017-03-04T08:12:07.340Z,520
2017-03-04T08:13:07.320Z,515
2017-03-04T08:14:07.386Z,515
2017-03-04T08:15:07.365Z,545
2017-03-04T08:16:07.422Z,565
2017-03-04T08:17:07.482Z,550
2017-03-04T08:18:07.490Z,565
2017-03-04T08:19:07.532Z,575
2017-03-04T08:20:07.780Z,600
2017-03-04T08:21:07.594Z,635
2017-03-04T08:22:07.623Z,695
2017-03-04T08:23:07.681Z,615
2017-03-04T08:24:07.687Z,605
2017-03-04T08:25:07.862Z,615
2017-03-04T08:26:07.773Z,620
2017-03-04T08:27:07.757Z,620
2017-03-04T08:28:07.838Z,630
2017-03-04T08:29:07.864Z,685
2017-03-04T08:30:07.991Z,710
2017-03-04T08:31:07.903Z,740
2017-03-04T08:32:07.919Z,805
2017-03-04T08:33:08.002Z,860
2017-03-04T08:34:08.021Z,895
2017-03-04T08:35:08.326Z,915
2017-03-04T08:36:08.044Z,940
2017-03-04T08:37:08.135Z,920
2017-03-04T08:38:08.133Z,895
2017-03-04T08:39:08.133Z,905
2017-03-04T08:40:08.203Z,940
2017-03-04T08:41:08.256Z,1010
2017-03-04T08:42:08.256Z,990
2017-03-04T08:43:08.333Z,960
2017-03-04T08:44:08.364Z,1060
2017-03-04T08:45:08.397Z,1090
2017-03-04T08:46:08.408Z,1145
2017-03-04T08:47:08.431Z,980
2017-03-04T08:48:08.469Z,1095
2017-03-04T08:49:08.495Z,925
2017-03-04T08:50:08.565Z,1155
2017-03-04T08:51:08.605Z,1210
2017-03-04T08:52:08.603Z,1150
2017-03-04T08:53:08.668Z,1120
2017-03-04T08:54:08.701Z,1075
2017-03-04T08:55:08.772Z,995
2017-03-04T08:56:08.779Z,1045
2017-03-04T08:57:08.831Z,1065
2017-03-04T08:58:08.875Z,1115
2017-03-04T08:59:08.897Z,1120
2017-03-04T09:00:08.913Z,1085
2017-03-04T09:01:09.018Z,1215
2017-03-04T09:02:08.986Z,1190
2017-03-04T09:03:09.060Z,1140
2017-03-04T09:04:09.025Z,1115
2017-03-04T09:05:09.314Z,1070
2017-03-04T09:06:09.133Z,1105
2017-03-04T09:07:09.181Z,1210
2017-03-04T09:08:09.217Z,1145
2017-03-04T09:09:09.246Z,1195
2017-03-04T09:10:09.407Z,1245
2017-03-04T09:11:09.345Z,1045
2017-03-04T09:12:09.352Z,1120
2017-03-04T09:13:09.413Z,1215
2017-03-04T09:14:09.448Z,1260
2017-03-04T09:15:09.669Z,1265
2017-03-04T09:16:09.507Z,1340
2017-03-04T09:17:09.552Z,1405
2017-03-04T09:18:09.645Z,1365
2017-03-04T09:19:09.660Z,1375
2017-03-04T09:20:10.077Z,1340
2017-03-04T09:21:09.725Z,1355
2017-03-04T09:22:09.800Z,1405
2017-03-04T09:23:09.780Z,1415
2017-03-04T09:24:09.912Z,1430
2017-03-04T09:25:10.238Z,1530
2017-03-04T09:26:09.915Z,1525
2017-03-04T09:27:09.921Z,1440
2017-03-04T09:28:09.999Z,1715
2017-03-04T09:29:10.051Z,1775
2017-03-04T09:30:10.096Z,1755
2017-03-04T09:31:10.089Z,1785
2017-03-04T09:32:10.154Z,1870
2017-03-04T09:33:10.232Z,2005
2017-03-04T09:34:10.282Z,1945
2017-03-04T09:35:10.236Z,1975
2017-03-04T09:36:10.303Z,2080
2017-03-04T09:37:10.333Z,2015
2017-03-04T09:38:10.391Z,2065
2017-03-04T09:39:10.452Z,2085
2017-03-04T09:40:10.451Z,2120
2017-03-04T09:41:10.511Z,2225
2017-03-04T09:42:10.544Z,2235
2017-03-04T09:43:10.586Z,2290
2017-03-04T09:44:10.622Z,2085
2017-03-04T09:45:10.959Z,2025
2017-03-04T09:46:10.757Z,1835
2017-03-04T09:47:10.738Z,1615
2017-03-04T09:48:10.804Z,1445
2017-03-04T09:49:10.857Z,1295
2017-03-04T09:50:10.905Z,1255
2017-03-04T09:51:11.207Z,1205
2017-03-04T09:52:10.966Z,1045
2017-03-04T09:53:10.966Z,1075
2017-03-04T09:54:11.059Z,1100
2017-03-04T09:55:11.086Z,1090
2017-03-04T09:56:11.215Z,1015
2017-03-04T09:57:11.161Z,1025
2017-03-04T09:58:11.209Z,1060
2017-03-04T09:59:11.252Z,1200
2017-03-04T10:00:11.268Z,1265
2017-03-04T10:01:11.521Z,1250
2017-03-04T10:02:11.596Z,1180
2017-03-04T10:03:11.397Z,1120
2017-03-04T10:04:11.425Z,1145
2017-03-04T10:05:11.536Z,1195
2017-03-04T10:06:11.909Z,1115
2017-03-04T10:07:11.576Z,1055
2017-03-04T10:08:11.602Z,1125
2017-03-04T10:09:11.650Z,1225
2017-03-04T10:10:11.655Z,1230
2017-03-04T10:11:11.925Z,1180
2017-03-04T10:12:11.980Z,1040
2017-03-04T10:13:11.833Z,975
2017-03-04T10:14:11.826Z,1065
2017-03-04T10:15:11.946Z,1010
2017-03-04T10:16:11.933Z,955
2017-03-04T10:17:11.996Z,990
2017-03-04T10:18:12.131Z,990
2017-03-04T10:19:12.106Z,980
2017-03-04T10:20:12.112Z,985
2017-03-04T10:21:12.158Z,975
2017-03-04T10:22:12.165Z,945
2017-03-04T10:23:12.227Z,890
2017-03-04T10:24:12.274Z,840
2017-03-04T10:25:12.322Z,740
2017-03-04T10:26:12.362Z,735
2017-03-04T10:27:12.407Z,740
2017-03-04T10:28:12.414Z,720
2017-03-04T10:29:12.451Z,700
2017-03-04T10:30:13.054Z,680
2017-03-04T10:31:12.548Z,680
2017-03-04T10:32:12.560Z,680
2017-03-04T10:33:12.614Z,680
2017-03-04T10:34:12.658Z,690
2017-03-04T10:35:13.008Z,665
2017-03-04T10:36:12.739Z,660
2017-03-04T10:37:12.789Z,655
2017-03-04T10:38:12.794Z,650
2017-03-04T10:39:12.859Z,605
2017-03-04T10:40:12.918Z,615
2017-03-04T10:41:12.922Z,565
2017-03-04T10:42:13.074Z,610
2017-03-04T10:43:12.997Z,640
2017-03-04T10:44:13.050Z,590
2017-03-04T10:45:13.656Z,590
2017-03-04T10:46:13.113Z,580
2017-03-04T10:47:13.223Z,570
2017-03-04T10:48:13.198Z,560
2017-03-04T10:49:13.248Z,575
2017-03-04T10:50:13.504Z,570
2017-03-04T10:51:13.349Z,610
2017-03-04T10:52:13.652Z,635
2017-03-04T10:53:13.420Z,615
2017-03-04T10:54:13.428Z,665
2017-03-04T10:55:13.476Z,700
2017-03-04T10:56:13.476Z,665
2017-03-04T10:57:13.654Z,665
2017-03-04T10:58:13.560Z,630
2017-03-04T10:59:13.622Z,625
2017-03-04T11:00:13.754Z,695
2017-03-04T11:01:13.909Z,750
2017-03-04T11:02:13.706Z,575
2017-03-04T11:03:13.744Z,510
2017-03-04T11:04:13.793Z,480
2017-03-04T11:05:13.816Z,465
2017-03-04T11:06:13.889Z,460
2017-03-04T11:07:14.223Z,450
2017-03-04T11:08:13.935Z,445
2017-03-04T11:09:13.962Z,440
2017-03-04T11:10:13.997Z,435
2017-03-04T11:11:14.225Z,410
2017-03-04T11:12:14.065Z,425
2017-03-04T11:13:14.116Z,435
2017-03-04T11:14:14.151Z,415
2017-03-04T11:15:14.438Z,420
2017-03-04T11:16:14.262Z,400
2017-03-04T11:17:14.320Z,405
2017-03-04T11:18:14.329Z,395
2017-03-04T11:19:14.356Z,395
2017-03-04T11:20:14.425Z,395
2017-03-04T11:21:14.424Z,385
2017-03-04T11:22:14.463Z,380
2017-03-04T11:23:14.514Z,380
2017-03-04T11:24:14.539Z,380
2017-03-04T11:25:14.590Z,370
2017-03-04T11:26:14.618Z,355
2017-03-04T11:27:14.671Z,345
2017-03-04T11:28:14.679Z,335
2017-03-04T11:29:14.724Z,340
2017-03-04T11:30:14.809Z,340
2017-03-04T11:31:15.014Z,325
2017-03-04T11:32:14.823Z,310
2017-03-04T11:33:14.965Z,285
2017-03-04T11:34:14.942Z,285
2017-03-04T11:35:14.988Z,280
2017-03-04T11:36:14.963Z,285
2017-03-04T11:37:14.962Z,280
2017-03-04T11:38:15.165Z,285
2017-03-04T11:39:15.090Z,285
2017-03-04T11:40:15.086Z,270
2017-03-04T11:41:15.152Z,275
2017-03-04T11:42:15.204Z,275
2017-03-04T11:43:15.315Z,275
2017-03-04T11:44:15.262Z,280
2017-03-04T11:45:15.293Z,280
2017-03-04T11:46:15.325Z,280
2017-03-04T11:47:15.385Z,275
2017-03-04T11:48:15.512Z,275
2017-03-04T11:49:15.463Z,285
2017-03-04T11:50:15.513Z,285
2017-03-04T11:51:15.532Z,285
2017-03-04T11:52:15.536Z,285
2017-03-04T11:53:15.683Z,285
2017-03-04T11:54:15.664Z,275
2017-03-04T11:55:15.641Z,270
2017-03-04T11:56:15.663Z,265
2017-03-04T11:57:15.766Z,265
2017-03-04T11:58:15.759Z,260
2017-03-04T11:59:15.817Z,260
2017-03-04T12:00:16.028Z,265
2017-03-04T12:01:15.872Z,255
2017-03-04T12:02:15.864Z,255
2017-03-04T12:03:15.986Z,260
2017-03-04T12:04:15.968Z,250
2017-03-04T12:05:16.024Z,250
2017-03-04T12:06:16.064Z,245
2017-03-04T12:07:16.108Z,245
2017-03-04T12:08:16.128Z,245
2017-03-04T12:09:16.166Z,240
2017-03-04T12:10:16.171Z,240
2017-03-04T12:11:16.223Z,235
2017-03-04T12:12:16.265Z,235
2017-03-04T12:13:16.288Z,225
2017-03-04T12:14:16.358Z,220
2017-03-04T12:15:16.382Z,220
2017-03-04T12:16:16.421Z,210
2017-03-04T12:17:16.460Z,215
2017-03-04T12:18:16.495Z,210
2017-03-04T12:19:16.527Z,210
2017-03-04T12:20:16.580Z,210
2017-03-04T12:21:16.604Z,210
2017-03-04T12:22:16.664Z,205
2017-03-04T12:23:16.650Z,205
2017-03-04T12:24:16.795Z,205
2017-03-04T12:25:16.721Z,205
2017-03-04T12:26:16.732Z,205
2017-03-04T12:27:16.821Z,205
2017-03-04T12:28:16.855Z,205
2017-03-04T12:29:16.969Z,205
2017-03-04T12:30:16.944Z,205
2017-03-04T12:31:16.934Z,205
2017-03-04T12:32:16.970Z,205
2017-03-04T12:33:16.999Z,210
2017-03-04T12:34:17.162Z,205
2017-03-04T12:35:17.083Z,205
2017-03-04T12:36:17.104Z,205
2017-03-04T12:37:17.157Z,205
2017-03-04T12:38:17.152Z,205
2017-03-04T12:39:17.350Z,205
2017-03-04T12:40:17.261Z,205
2017-03-04T12:41:17.294Z,210
2017-03-04T12:42:17.323Z,205
2017-03-04T12:43:17.352Z,205
2017-03-04T12:44:17.678Z,205
2017-03-04T12:45:17.485Z,205
2017-03-04T12:46:17.483Z,205
2017-03-04T12:47:17.452Z,205
2017-03-04T12:48:17.548Z,205
2017-03-04T12:49:17.570Z,205
2017-03-04T12:50:17.635Z,205
2017-03-04T12:51:17.638Z,205
2017-03-04T12:52:17.676Z,210
2017-03-04T12:53:17.678Z,205
2017-03-04T12:54:17.753Z,205
2017-03-04T12:55:17.757Z,205
2017-03-04T12:56:17.852Z,205
2017-03-04T12:57:17.868Z,205
2017-03-04T12:58:17.858Z,205
2017-03-04T12:59:17.936Z,205
2017-03-04T13:00:17.954Z,205
2017-03-04T13:01:17.997Z,205
2017-03-04T13:02:18.025Z,205
2017-03-04T13:03:18.069Z,205
2017-03-04T13:04:18.083Z,205
2017-03-04T13:05:18.096Z,205
2017-03-04T13:06:18.155Z,205
2017-03-04T13:07:18.172Z,205
2017-03-04T13:08:18.335Z,205
2017-03-04T13:09:18.278Z,205
2017-03-04T13:10:18.330Z,205
2017-03-04T13:11:18.350Z,205
2017-03-04T13:12:18.377Z,205
2017-03-04T13:13:18.623Z,210
2017-03-04T13:14:18.511Z,205
2017-03-04T13:15:18.502Z,205
2017-03-04T13:16:18.537Z,205
2017-03-04T13:17:18.547Z,200
2017-03-04T13:18:18.564Z,205
2017-03-04T13:19:18.655Z,205
2017-03-04T13:20:18.783Z,200
2017-03-04T13:21:18.704Z,200
2017-03-04T13:22:18.706Z,200
2017-03-04T13:23:18.778Z,200
2017-03-04T13:24:18.769Z,200
2017-03-04T13:25:18.979Z,200
2017-03-04T13:26:18.873Z,200
2017-03-04T13:27:18.903Z,195
2017-03-04T13:28:18.953Z,195
2017-03-04T13:29:18.975Z,195
2017-03-04T13:30:19.183Z,195
2017-03-04T13:31:19.039Z,195
2017-03-04T13:32:19.079Z,195
2017-03-04T13:33:19.159Z,195
2017-03-04T13:34:19.154Z,190
2017-03-04T13:35:19.182Z,190
2017-03-04T13:36:19.208Z,190
2017-03-04T13:37:19.250Z,190
2017-03-04T13:38:19.274Z,190
2017-03-04T13:39:19.317Z,185
2017-03-04T13:40:19.332Z,190
2017-03-04T13:41:19.376Z,185
2017-03-04T13:42:19.448Z,185
2017-03-04T13:43:19.424Z,185
2017-03-04T13:44:19.469Z,185
2017-03-04T13:45:19.524Z,185
2017-03-04T13:46:19.598Z,185
2017-03-04T13:47:19.627Z,185
2017-03-04T13:48:19.636Z,185
2017-03-04T13:49:19.706Z,185
2017-03-04T13:50:19.683Z,185
2017-03-04T13:51:19.732Z,185
2017-03-04T13:52:19.773Z,185
2017-03-04T13:53:19.819Z,185
2017-03-04T13:54:19.808Z,190
2017-03-04T13:55:19.862Z,195
2017-03-04T13:56:19.907Z,190
2017-03-04T13:57:19.969Z,190
2017-03-04T13:58:19.965Z,195
2017-03-04T13:59:19.997Z,195
2017-03-04T14:00:20.047Z,195
2017-03-04T14:01:20.060Z,195
2017-03-04T14:02:20.083Z,200
2017-03-04T14:03:20.149Z,200
2017-03-04T14:04:20.181Z,200
2017-03-04T14:05:20.430Z,200
2017-03-04T14:06:20.211Z,200
2017-03-04T14:07:20.323Z,205
2017-03-04T14:08:20.321Z,205
2017-03-04T14:09:20.362Z,200
2017-03-04T14:10:20.444Z,200